sensor_id;sensor_type;location;lat;lon;timestamp;P1;durP1;ratioP1;P2;durP2;ratioP2
10154;SDS011;5118;48.570;7.916;2022-10-13T00:01:30;23.97;;;18.03;;
10154;SDS011;5118;48.570;7.916;2022-10-13T00:03:59;24.03;;;18.40;;
10154;SDS011;5118;48.570;7.916;2022-10-13T00:06:29;20.73;;;17.63;;
10154;SDS011;5118;48.570;7.916;2022-10-13T00:08:58;23.07;;;18.90;;
10154;SDS011;5118;48.570;7.916;2022-10-13T00:11:27;25.87;;;18.27;;
10154;SDS011;5118;48.570;7.916;2022-10-13T00:14:00;20.53;;;17.87;;
10154;SDS011;5118;48.570;7.916;2022-10-13T00:16:34;21.93;;;17.90;;
10154;SDS011;5118;48.570;7.916;2022-10-13T00:19:07;20.13;;;16.57;;
10154;SDS011;5118;48.570;7.916;2022-10-13T00:21:42;17.73;;;15.83;;
10154;SDS011;5118;48.570;7.916;2022-10-13T00:24:17;19.17;;;16.03;;
10154;SDS011;5118;48.570;7.916;2022-10-13T00:26:45;20.50;;;15.60;;
10154;SDS011;5118;48.570;7.916;2022-10-13T00:29:18;19.37;;;15.43;;
10154;SDS011;5118;48.570;7.916;2022-10-13T00:31:47;17.97;;;15.23;;
10154;SDS011;5118;48.570;7.916;2022-10-13T00:34:17;19.63;;;15.70;;
10154;SDS011;5118;48.570;7.916;2022-10-13T00:36:47;18.37;;;14.83;;
10154;SDS011;5118;48.570;7.916;2022-10-13T00:39:15;16.13;;;14.27;;
10154;SDS011;5118;48.570;7.916;2022-10-13T00:41:44;16.10;;;14.43;;
10154;SDS011;5118;48.570;7.916;2022-10-13T00:47:25;18.13;;;14.33;;
10154;SDS011;5118;48.570;7.916;2022-10-13T00:49:58;19.80;;;15.60;;
10154;SDS011;5118;48.570;7.916;2022-10-13T00:52:29;16.83;;;14.70;;
10154;SDS011;5118;48.570;7.916;2022-10-13T00:55:00;16.83;;;13.47;;
10154;SDS011;5118;48.570;7.916;2022-10-13T00:57:30;17.87;;;13.97;;
10154;SDS011;5118;48.570;7.916;2022-10-13T00:59:59;23.77;;;18.53;;
10154;SDS011;5118;48.570;7.916;2022-10-13T01:02:30;24.57;;;19.07;;
10154;SDS011;5118;48.570;7.916;2022-10-13T01:05:05;19.90;;;15.80;;
10154;SDS011;5118;48.570;7.916;2022-10-13T01:07:35;19.60;;;16.63;;
10154;SDS011;5118;48.570;7.916;2022-10-13T01:10:04;22.57;;;15.83;;
10154;SDS011;5118;48.570;7.916;2022-10-13T01:12:40;21.30;;;17.97;;
10154;SDS011;5118;48.570;7.916;2022-10-13T01:15:20;18.33;;;15.50;;
10154;SDS011;5118;48.570;7.916;2022-10-13T01:17:55;21.87;;;15.87;;
10154;SDS011;5118;48.570;7.916;2022-10-13T01:20:49;16.30;;;14.40;;
10154;SDS011;5118;48.570;7.916;2022-10-13T01:26:55;18.47;;;14.87;;
10154;SDS011;5118;48.570;7.916;2022-10-13T01:32:37;18.10;;;15.00;;
10154;SDS011;5118;48.570;7.916;2022-10-13T01:35:27;17.77;;;15.07;;
10154;SDS011;5118;48.570;7.916;2022-10-13T01:38:06;17.13;;;15.33;;
10154;SDS011;5118;48.570;7.916;2022-10-13T01:40:39;20.80;;;16.70;;
10154;SDS011;5118;48.570;7.916;2022-10-13T01:43:13;24.07;;;17.23;;
10154;SDS011;5118;48.570;7.916;2022-10-13T01:45:50;21.97;;;17.80;;
10154;SDS011;5118;48.570;7.916;2022-10-13T01:48:23;19.97;;;16.90;;
10154;SDS011;5118;48.570;7.916;2022-10-13T01:50:54;24.50;;;17.23;;
10154;SDS011;5118;48.570;7.916;2022-10-13T01:53:26;20.87;;;16.73;;
10154;SDS011;5118;48.570;7.916;2022-10-13T01:55:58;23.83;;;16.00;;
10154;SDS011;5118;48.570;7.916;2022-10-13T01:58:27;22.77;;;15.73;;
10154;SDS011;5118;48.570;7.916;2022-10-13T02:01:05;18.83;;;14.57;;
10154;SDS011;5118;48.570;7.916;2022-10-13T02:03:48;17.43;;;13.93;;
10154;SDS011;5118;48.570;7.916;2022-10-13T02:06:29;16.07;;;14.00;;
10154;SDS011;5118;48.570;7.916;2022-10-13T02:09:00;16.53;;;13.43;;
10154;SDS011;5118;48.570;7.916;2022-10-13T02:11:36;18.23;;;13.47;;
10154;SDS011;5118;48.570;7.916;2022-10-13T02:14:11;14.90;;;12.77;;
10154;SDS011;5118;48.570;7.916;2022-10-13T02:16:45;17.80;;;13.13;;
10154;SDS011;5118;48.570;7.916;2022-10-13T02:19:16;17.27;;;14.90;;
10154;SDS011;5118;48.570;7.916;2022-10-13T02:21:45;20.00;;;14.03;;
10154;SDS011;5118;48.570;7.916;2022-10-13T02:24:16;18.43;;;15.47;;
10154;SDS011;5118;48.570;7.916;2022-10-13T02:26:45;17.93;;;14.83;;
10154;SDS011;5118;48.570;7.916;2022-10-13T02:29:18;20.73;;;14.67;;
10154;SDS011;5118;48.570;7.916;2022-10-13T02:31:48;16.20;;;14.23;;
10154;SDS011;5118;48.570;7.916;2022-10-13T02:34:19;19.10;;;14.73;;
10154;SDS011;5118;48.570;7.916;2022-10-13T02:36:47;16.33;;;14.30;;
10154;SDS011;5118;48.570;7.916;2022-10-13T02:39:16;15.83;;;13.80;;
10154;SDS011;5118;48.570;7.916;2022-10-13T02:41:44;16.97;;;15.17;;
10154;SDS011;5118;48.570;7.916;2022-10-13T02:44:13;19.33;;;14.53;;
10154;SDS011;5118;48.570;7.916;2022-10-13T02:46:41;18.33;;;14.50;;
10154;SDS011;5118;48.570;7.916;2022-10-13T02:49:11;18.03;;;14.80;;
10154;SDS011;5118;48.570;7.916;2022-10-13T02:51:39;20.93;;;15.33;;
10154;SDS011;5118;48.570;7.916;2022-10-13T02:54:08;18.27;;;14.80;;
10154;SDS011;5118;48.570;7.916;2022-10-13T02:56:36;19.63;;;15.10;;
10154;SDS011;5118;48.570;7.916;2022-10-13T02:59:05;18.63;;;15.73;;
10154;SDS011;5118;48.570;7.916;2022-10-13T03:01:33;23.70;;;17.30;;
10154;SDS011;5118;48.570;7.916;2022-10-13T03:04:06;26.63;;;18.33;;
10154;SDS011;5118;48.570;7.916;2022-10-13T03:06:37;19.20;;;16.23;;
10154;SDS011;5118;48.570;7.916;2022-10-13T03:09:06;23.23;;;18.77;;
10154;SDS011;5118;48.570;7.916;2022-10-13T03:11:35;27.93;;;20.30;;
10154;SDS011;5118;48.570;7.916;2022-10-13T03:14:04;23.67;;;18.10;;
10154;SDS011;5118;48.570;7.916;2022-10-13T03:16:32;22.37;;;18.00;;
10154;SDS011;5118;48.570;7.916;2022-10-13T03:19:00;26.20;;;18.50;;
10154;SDS011;5118;48.570;7.916;2022-10-13T03:21:29;23.97;;;17.67;;
10154;SDS011;5118;48.570;7.916;2022-10-13T03:23:59;26.30;;;18.10;;
10154;SDS011;5118;48.570;7.916;2022-10-13T03:26:27;22.43;;;17.87;;
10154;SDS011;5118;48.570;7.916;2022-10-13T03:28:56;26.07;;;19.40;;
10154;SDS011;5118;48.570;7.916;2022-10-13T03:31:24;25.63;;;19.23;;
10154;SDS011;5118;48.570;7.916;2022-10-13T03:34:00;24.77;;;19.67;;
10154;SDS011;5118;48.570;7.916;2022-10-13T03:36:29;27.23;;;20.37;;
10154;SDS011;5118;48.570;7.916;2022-10-13T03:38:58;27.10;;;19.57;;
10154;SDS011;5118;48.570;7.916;2022-10-13T03:41:27;24.70;;;19.77;;
10154;SDS011;5118;48.570;7.916;2022-10-13T03:43:55;21.17;;;18.83;;
10154;SDS011;5118;48.570;7.916;2022-10-13T03:46:25;24.00;;;19.37;;
10154;SDS011;5118;48.570;7.916;2022-10-13T03:48:57;22.20;;;19.23;;
10154;SDS011;5118;48.570;7.916;2022-10-13T03:51:28;21.07;;;18.77;;
10154;SDS011;5118;48.570;7.916;2022-10-13T03:53:58;26.77;;;21.30;;
10154;SDS011;5118;48.570;7.916;2022-10-13T03:56:27;29.03;;;20.77;;
10154;SDS011;5118;48.570;7.916;2022-10-13T03:58:57;27.17;;;21.53;;
10154;SDS011;5118;48.570;7.916;2022-10-13T04:01:26;24.83;;;19.27;;
10154;SDS011;5118;48.570;7.916;2022-10-13T04:03:57;23.97;;;19.27;;
10154;SDS011;5118;48.570;7.916;2022-10-13T04:06:28;21.63;;;18.63;;
10154;SDS011;5118;48.570;7.916;2022-10-13T04:08:58;20.40;;;17.30;;
10154;SDS011;5118;48.570;7.916;2022-10-13T04:11:27;24.53;;;19.77;;
10154;SDS011;5118;48.570;7.916;2022-10-13T04:13:55;18.23;;;16.27;;
10154;SDS011;5118;48.570;7.916;2022-10-13T04:16:25;18.67;;;16.57;;
10154;SDS011;5118;48.570;7.916;2022-10-13T04:18:56;17.87;;;15.97;;
10154;SDS011;5118;48.570;7.916;2022-10-13T04:21:26;16.67;;;14.87;;
10154;SDS011;5118;48.570;7.916;2022-10-13T04:24:00;17.27;;;15.47;;
10154;SDS011;5118;48.570;7.916;2022-10-13T04:26:30;18.77;;;15.83;;
10154;SDS011;5118;48.570;7.916;2022-10-13T04:29:05;20.23;;;16.70;;
10154;SDS011;5118;48.570;7.916;2022-10-13T04:31:35;19.07;;;16.93;;
10154;SDS011;5118;48.570;7.916;2022-10-13T04:34:05;25.40;;;19.60;;
10154;SDS011;5118;48.570;7.916;2022-10-13T04:36:34;21.80;;;17.90;;
10154;SDS011;5118;48.570;7.916;2022-10-13T04:39:03;23.53;;;18.97;;
10154;SDS011;5118;48.570;7.916;2022-10-13T04:41:33;29.20;;;21.30;;
10154;SDS011;5118;48.570;7.916;2022-10-13T04:44:02;31.17;;;21.67;;
10154;SDS011;5118;48.570;7.916;2022-10-13T04:46:30;32.57;;;26.70;;
10154;SDS011;5118;48.570;7.916;2022-10-13T04:48:59;34.73;;;29.23;;
10154;SDS011;5118;48.570;7.916;2022-10-13T04:51:30;36.43;;;28.83;;
10154;SDS011;5118;48.570;7.916;2022-10-13T04:53:59;42.57;;;27.23;;
10154;SDS011;5118;48.570;7.916;2022-10-13T04:56:30;37.90;;;25.63;;
10154;SDS011;5118;48.570;7.916;2022-10-13T04:59:00;36.00;;;25.37;;
10154;SDS011;5118;48.570;7.916;2022-10-13T05:01:31;40.30;;;26.80;;
10154;SDS011;5118;48.570;7.916;2022-10-13T05:04:04;37.77;;;25.23;;
10154;SDS011;5118;48.570;7.916;2022-10-13T05:06:35;41.60;;;26.67;;
10154;SDS011;5118;48.570;7.916;2022-10-13T05:09:25;37.63;;;26.53;;
10154;SDS011;5118;48.570;7.916;2022-10-13T05:11:55;38.10;;;26.87;;
10154;SDS011;5118;48.570;7.916;2022-10-13T05:14:23;40.50;;;28.67;;
10154;SDS011;5118;48.570;7.916;2022-10-13T05:16:51;47.23;;;34.73;;
10154;SDS011;5118;48.570;7.916;2022-10-13T05:19:20;38.30;;;29.67;;
10154;SDS011;5118;48.570;7.916;2022-10-13T05:21:48;37.33;;;29.80;;
10154;SDS011;5118;48.570;7.916;2022-10-13T05:24:16;37.50;;;26.27;;
10154;SDS011;5118;48.570;7.916;2022-10-13T05:26:57;36.57;;;26.13;;
10154;SDS011;5118;48.570;7.916;2022-10-13T05:29:26;35.07;;;26.60;;
10154;SDS011;5118;48.570;7.916;2022-10-13T05:31:54;37.97;;;29.67;;
10154;SDS011;5118;48.570;7.916;2022-10-13T05:34:22;37.53;;;28.27;;
10154;SDS011;5118;48.570;7.916;2022-10-13T05:36:51;39.13;;;29.83;;
10154;SDS011;5118;48.570;7.916;2022-10-13T05:39:19;63.23;;;33.57;;
10154;SDS011;5118;48.570;7.916;2022-10-13T05:41:48;73.37;;;34.13;;
10154;SDS011;5118;48.570;7.916;2022-10-13T05:44:20;107.40;;;31.70;;
10154;SDS011;5118;48.570;7.916;2022-10-13T05:46:53;62.00;;;29.03;;
10154;SDS011;5118;48.570;7.916;2022-10-13T05:49:22;54.03;;;26.67;;
10154;SDS011;5118;48.570;7.916;2022-10-13T05:51:52;76.67;;;32.67;;
10154;SDS011;5118;48.570;7.916;2022-10-13T05:54:25;62.77;;;33.33;;
10154;SDS011;5118;48.570;7.916;2022-10-13T05:56:57;55.43;;;27.07;;
10154;SDS011;5118;48.570;7.916;2022-10-13T05:59:31;54.17;;;27.43;;
10154;SDS011;5118;48.570;7.916;2022-10-13T06:02:16;40.77;;;26.33;;
10154;SDS011;5118;48.570;7.916;2022-10-13T06:04:50;34.20;;;26.10;;
10154;SDS011;5118;48.570;7.916;2022-10-13T06:07:21;34.37;;;28.03;;
10154;SDS011;5118;48.570;7.916;2022-10-13T06:09:50;33.47;;;27.33;;
10154;SDS011;5118;48.570;7.916;2022-10-13T06:12:18;39.57;;;33.77;;
10154;SDS011;5118;48.570;7.916;2022-10-13T06:14:49;31.37;;;25.70;;
10154;SDS011;5118;48.570;7.916;2022-10-13T06:17:17;29.50;;;24.37;;
10154;SDS011;5118;48.570;7.916;2022-10-13T06:19:45;31.70;;;23.90;;
10154;SDS011;5118;48.570;7.916;2022-10-13T06:22:14;28.07;;;23.30;;
10154;SDS011;5118;48.570;7.916;2022-10-13T06:24:43;28.67;;;22.90;;
10154;SDS011;5118;48.570;7.916;2022-10-13T06:27:11;28.33;;;23.70;;
10154;SDS011;5118;48.570;7.916;2022-10-13T06:29:40;25.93;;;22.97;;
10154;SDS011;5118;48.570;7.916;2022-10-13T06:32:09;29.30;;;26.30;;
10154;SDS011;5118;48.570;7.916;2022-10-13T06:34:38;28.27;;;24.73;;
10154;SDS011;5118;48.570;7.916;2022-10-13T06:37:06;32.80;;;24.50;;
10154;SDS011;5118;48.570;7.916;2022-10-13T06:39:35;29.63;;;26.50;;
10154;SDS011;5118;48.570;7.916;2022-10-13T06:42:03;28.23;;;25.27;;
10154;SDS011;5118;48.570;7.916;2022-10-13T06:44:36;23.40;;;21.03;;
10154;SDS011;5118;48.570;7.916;2022-10-13T06:47:04;22.40;;;20.03;;
10154;SDS011;5118;48.570;7.916;2022-10-13T06:49:35;22.40;;;19.63;;
10154;SDS011;5118;48.570;7.916;2022-10-13T06:52:04;23.20;;;20.67;;
10154;SDS011;5118;48.570;7.916;2022-10-13T06:54:33;20.97;;;18.60;;
10154;SDS011;5118;48.570;7.916;2022-10-13T06:57:04;21.07;;;18.87;;
10154;SDS011;5118;48.570;7.916;2022-10-13T06:59:32;23.73;;;19.77;;
10154;SDS011;5118;48.570;7.916;2022-10-13T07:02:01;24.60;;;21.23;;
10154;SDS011;5118;48.570;7.916;2022-10-13T07:04:29;22.23;;;18.03;;
10154;SDS011;5118;48.570;7.916;2022-10-13T07:06:59;18.53;;;16.63;;
10154;SDS011;5118;48.570;7.916;2022-10-13T07:09:27;21.27;;;18.60;;
10154;SDS011;5118;48.570;7.916;2022-10-13T07:11:56;29.37;;;23.17;;
10154;SDS011;5118;48.570;7.916;2022-10-13T07:14:24;22.40;;;20.00;;
10154;SDS011;5118;48.570;7.916;2022-10-13T07:16:53;27.77;;;24.23;;
10154;SDS011;5118;48.570;7.916;2022-10-13T07:19:24;24.70;;;21.87;;
10154;SDS011;5118;48.570;7.916;2022-10-13T07:21:52;28.57;;;23.00;;
10154;SDS011;5118;48.570;7.916;2022-10-13T07:24:24;28.20;;;22.17;;
10154;SDS011;5118;48.570;7.916;2022-10-13T07:26:52;28.87;;;23.03;;
10154;SDS011;5118;48.570;7.916;2022-10-13T07:29:21;29.40;;;23.03;;
10154;SDS011;5118;48.570;7.916;2022-10-13T07:31:49;27.70;;;21.90;;
10154;SDS011;5118;48.570;7.916;2022-10-13T07:34:17;33.10;;;22.70;;
10154;SDS011;5118;48.570;7.916;2022-10-13T07:36:46;27.83;;;22.50;;
10154;SDS011;5118;48.570;7.916;2022-10-13T07:39:14;28.20;;;23.17;;
10154;SDS011;5118;48.570;7.916;2022-10-13T07:41:44;31.63;;;23.17;;
10154;SDS011;5118;48.570;7.916;2022-10-13T07:44:16;32.13;;;23.20;;
10154;SDS011;5118;48.570;7.916;2022-10-13T07:46:45;28.83;;;23.83;;
10154;SDS011;5118;48.570;7.916;2022-10-13T07:49:13;32.63;;;24.10;;
10154;SDS011;5118;48.570;7.916;2022-10-13T07:51:42;31.60;;;24.27;;
10154;SDS011;5118;48.570;7.916;2022-10-13T07:54:10;32.00;;;24.23;;
10154;SDS011;5118;48.570;7.916;2022-10-13T07:56:39;32.70;;;24.00;;
10154;SDS011;5118;48.570;7.916;2022-10-13T07:59:10;30.67;;;22.43;;
10154;SDS011;5118;48.570;7.916;2022-10-13T08:01:38;30.10;;;23.73;;
10154;SDS011;5118;48.570;7.916;2022-10-13T08:04:07;32.40;;;23.20;;
10154;SDS011;5118;48.570;7.916;2022-10-13T08:06:35;32.70;;;23.57;;
10154;SDS011;5118;48.570;7.916;2022-10-13T08:09:07;35.27;;;22.80;;
10154;SDS011;5118;48.570;7.916;2022-10-13T08:11:36;30.90;;;22.47;;
10154;SDS011;5118;48.570;7.916;2022-10-13T08:14:05;28.60;;;21.57;;
10154;SDS011;5118;48.570;7.916;2022-10-13T08:16:35;28.30;;;22.63;;
10154;SDS011;5118;48.570;7.916;2022-10-13T08:19:05;30.47;;;23.27;;
10154;SDS011;5118;48.570;7.916;2022-10-13T08:21:34;29.27;;;22.83;;
10154;SDS011;5118;48.570;7.916;2022-10-13T08:24:22;26.13;;;21.40;;
10154;SDS011;5118;48.570;7.916;2022-10-13T08:26:51;27.20;;;22.37;;
10154;SDS011;5118;48.570;7.916;2022-10-13T08:29:19;25.57;;;21.53;;
10154;SDS011;5118;48.570;7.916;2022-10-13T08:31:51;26.97;;;22.30;;
10154;SDS011;5118;48.570;7.916;2022-10-13T08:34:23;30.13;;;22.43;;
10154;SDS011;5118;48.570;7.916;2022-10-13T08:36:52;29.17;;;22.73;;
10154;SDS011;5118;48.570;7.916;2022-10-13T08:39:22;33.00;;;22.77;;
10154;SDS011;5118;48.570;7.916;2022-10-13T08:41:51;28.93;;;21.43;;
10154;SDS011;5118;48.570;7.916;2022-10-13T08:44:24;36.10;;;21.20;;
10154;SDS011;5118;48.570;7.916;2022-10-13T08:47:22;26.43;;;21.50;;
10154;SDS011;5118;48.570;7.916;2022-10-13T08:49:59;27.30;;;21.93;;
10154;SDS011;5118;48.570;7.916;2022-10-13T08:52:41;26.20;;;20.60;;
10154;SDS011;5118;48.570;7.916;2022-10-13T08:55:16;28.93;;;22.33;;
10154;SDS011;5118;48.570;7.916;2022-10-13T08:57:50;27.30;;;22.23;;
10154;SDS011;5118;48.570;7.916;2022-10-13T09:00:24;28.43;;;22.27;;
10154;SDS011;5118;48.570;7.916;2022-10-13T09:02:54;24.97;;;21.23;;
10154;SDS011;5118;48.570;7.916;2022-10-13T09:05:33;28.00;;;21.87;;
10154;SDS011;5118;48.570;7.916;2022-10-13T09:08:09;27.67;;;21.73;;
10154;SDS011;5118;48.570;7.916;2022-10-13T09:10:47;25.47;;;21.97;;
10154;SDS011;5118;48.570;7.916;2022-10-13T09:13:20;24.97;;;22.27;;
10154;SDS011;5118;48.570;7.916;2022-10-13T09:15:50;24.30;;;21.60;;
10154;SDS011;5118;48.570;7.916;2022-10-13T09:18:20;27.03;;;20.77;;
10154;SDS011;5118;48.570;7.916;2022-10-13T09:21:07;28.97;;;20.20;;
10154;SDS011;5118;48.570;7.916;2022-10-13T09:23:37;24.53;;;20.13;;
10154;SDS011;5118;48.570;7.916;2022-10-13T09:26:08;20.33;;;18.23;;
10154;SDS011;5118;48.570;7.916;2022-10-13T09:28:43;24.03;;;19.33;;
10154;SDS011;5118;48.570;7.916;2022-10-13T09:31:13;21.83;;;18.60;;
10154;SDS011;5118;48.570;7.916;2022-10-13T09:33:45;22.37;;;18.97;;
10154;SDS011;5118;48.570;7.916;2022-10-13T09:36:23;24.20;;;19.30;;
10154;SDS011;5118;48.570;7.916;2022-10-13T09:39:06;23.93;;;19.63;;
10154;SDS011;5118;48.570;7.916;2022-10-13T09:41:39;24.63;;;18.73;;
10154;SDS011;5118;48.570;7.916;2022-10-13T09:44:10;26.00;;;18.90;;
10154;SDS011;5118;48.570;7.916;2022-10-13T09:46:47;26.23;;;19.10;;
10154;SDS011;5118;48.570;7.916;2022-10-13T09:49:36;25.47;;;20.57;;
10154;SDS011;5118;48.570;7.916;2022-10-13T09:52:13;24.53;;;18.63;;
10154;SDS011;5118;48.570;7.916;2022-10-13T09:54:45;20.13;;;17.00;;
10154;SDS011;5118;48.570;7.916;2022-10-13T09:57:17;22.77;;;17.33;;
10154;SDS011;5118;48.570;7.916;2022-10-13T09:59:52;18.97;;;16.93;;
10154;SDS011;5118;48.570;7.916;2022-10-13T10:02:27;21.27;;;15.93;;
10154;SDS011;5118;48.570;7.916;2022-10-13T10:05:04;18.23;;;15.20;;
10154;SDS011;5118;48.570;7.916;2022-10-13T10:07:40;17.50;;;14.70;;
10154;SDS011;5118;48.570;7.916;2022-10-13T10:10:23;18.43;;;15.10;;
10154;SDS011;5118;48.570;7.916;2022-10-13T10:13:01;20.57;;;14.20;;
10154;SDS011;5118;48.570;7.916;2022-10-13T10:15:32;17.42;;;15.02;;
10154;SDS011;5118;48.570;7.916;2022-10-13T10:18:11;18.58;;;14.90;;
10154;SDS011;5118;48.570;7.916;2022-10-13T10:20:48;17.10;;;14.13;;
10154;SDS011;5118;48.570;7.916;2022-10-13T10:23:26;18.33;;;14.32;;
10154;SDS011;5118;48.570;7.916;2022-10-13T10:26:04;22.45;;;14.52;;
10154;SDS011;5118;48.570;7.916;2022-10-13T10:28:41;18.90;;;14.45;;
10154;SDS011;5118;48.570;7.916;2022-10-13T10:31:31;17.52;;;14.07;;
10154;SDS011;5118;48.570;7.916;2022-10-13T10:34:09;21.17;;;13.73;;
10154;SDS011;5118;48.570;7.916;2022-10-13T10:37:01;15.27;;;12.80;;
10154;SDS011;5118;48.570;7.916;2022-10-13T10:39:52;15.63;;;13.32;;
10154;SDS011;5118;48.570;7.916;2022-10-13T10:42:39;16.60;;;12.55;;
10154;SDS011;5118;48.570;7.916;2022-10-13T10:45:20;16.02;;;12.48;;
10154;SDS011;5118;48.570;7.916;2022-10-13T10:47:54;17.85;;;12.32;;
10154;SDS011;5118;48.570;7.916;2022-10-13T10:50:26;15.50;;;12.02;;
10154;SDS011;5118;48.570;7.916;2022-10-13T10:53:00;17.65;;;11.07;;
10154;SDS011;5118;48.570;7.916;2022-10-13T10:55:34;13.45;;;10.50;;
10154;SDS011;5118;48.570;7.916;2022-10-13T10:58:13;13.30;;;9.85;;
10154;SDS011;5118;48.570;7.916;2022-10-13T11:00:50;15.48;;;10.43;;
10154;SDS011;5118;48.570;7.916;2022-10-13T11:03:28;13.50;;;10.07;;
10154;SDS011;5118;48.570;7.916;2022-10-13T11:06:21;13.93;;;9.27;;
10154;SDS011;5118;48.570;7.916;2022-10-13T11:08:53;12.57;;;9.13;;
10154;SDS011;5118;48.570;7.916;2022-10-13T11:11:28;13.70;;;9.10;;
10154;SDS011;5118;48.570;7.916;2022-10-13T11:14:21;15.27;;;8.93;;
10154;SDS011;5118;48.570;7.916;2022-10-13T11:19:47;14.70;;;8.70;;
10154;SDS011;5118;48.570;7.916;2022-10-13T11:22:17;9.73;;;8.52;;
10154;SDS011;5118;48.570;7.916;2022-10-13T11:24:59;11.38;;;8.27;;
10154;SDS011;5118;48.570;7.916;2022-10-13T11:27:37;11.07;;;8.98;;
10154;SDS011;5118;48.570;7.916;2022-10-13T11:33:31;10.82;;;7.95;;
10154;SDS011;5118;48.570;7.916;2022-10-13T11:39:01;14.02;;;9.10;;
10154;SDS011;5118;48.570;7.916;2022-10-13T11:41:53;12.15;;;9.45;;
10154;SDS011;5118;48.570;7.916;2022-10-13T11:44:33;12.70;;;8.82;;
10154;SDS011;5118;48.570;7.916;2022-10-13T11:47:07;14.48;;;9.48;;
10154;SDS011;5118;48.570;7.916;2022-10-13T11:49:52;11.63;;;9.02;;
10154;SDS011;5118;48.570;7.916;2022-10-13T11:52:46;16.20;;;9.50;;
10154;SDS011;5118;48.570;7.916;2022-10-13T11:55:29;12.40;;;9.10;;
10154;SDS011;5118;48.570;7.916;2022-10-13T11:58:08;14.07;;;9.73;;
10154;SDS011;5118;48.570;7.916;2022-10-13T12:00:48;14.18;;;10.68;;
10154;SDS011;5118;48.570;7.916;2022-10-13T12:03:21;13.77;;;10.65;;
10154;SDS011;5118;48.570;7.916;2022-10-13T12:05:54;14.05;;;11.00;;
10154;SDS011;5118;48.570;7.916;2022-10-13T12:08:26;17.45;;;11.23;;
10154;SDS011;5118;48.570;7.916;2022-10-13T12:10:59;14.50;;;10.48;;
10154;SDS011;5118;48.570;7.916;2022-10-13T12:13:32;15.52;;;10.23;;
10154;SDS011;5118;48.570;7.916;2022-10-13T12:16:03;10.65;;;9.55;;
10154;SDS011;5118;48.570;7.916;2022-10-13T12:18:38;11.32;;;9.70;;
10154;SDS011;5118;48.570;7.916;2022-10-13T12:21:09;12.55;;;9.20;;
10154;SDS011;5118;48.570;7.916;2022-10-13T12:23:39;17.20;;;8.73;;
10154;SDS011;5118;48.570;7.916;2022-10-13T12:26:12;15.07;;;9.90;;
10154;SDS011;5118;48.570;7.916;2022-10-13T12:28:47;18.70;;;9.90;;
10154;SDS011;5118;48.570;7.916;2022-10-13T12:31:19;17.30;;;10.23;;
10154;SDS011;5118;48.570;7.916;2022-10-13T12:33:52;14.52;;;9.57;;
10154;SDS011;5118;48.570;7.916;2022-10-13T12:36:24;15.52;;;11.05;;
10154;SDS011;5118;48.570;7.916;2022-10-13T12:38:57;12.68;;;10.70;;
10154;SDS011;5118;48.570;7.916;2022-10-13T12:41:28;16.17;;;11.65;;
10154;SDS011;5118;48.570;7.916;2022-10-13T12:44:00;15.23;;;11.10;;
10154;SDS011;5118;48.570;7.916;2022-10-13T12:46:36;13.35;;;10.52;;
10154;SDS011;5118;48.570;7.916;2022-10-13T12:49:05;14.00;;;11.25;;
10154;SDS011;5118;48.570;7.916;2022-10-13T12:51:38;18.13;;;10.70;;
10154;SDS011;5118;48.570;7.916;2022-10-13T12:54:08;16.65;;;11.02;;
10154;SDS011;5118;48.570;7.916;2022-10-13T12:56:46;12.85;;;10.57;;
10154;SDS011;5118;48.570;7.916;2022-10-13T12:59:23;13.10;;;11.27;;
10154;SDS011;5118;48.570;7.916;2022-10-13T13:01:55;14.68;;;11.32;;
10154;SDS011;5118;48.570;7.916;2022-10-13T13:04:28;15.65;;;11.65;;
10154;SDS011;5118;48.570;7.916;2022-10-13T13:07:05;14.32;;;11.18;;
10154;SDS011;5118;48.570;7.916;2022-10-13T13:09:58;17.92;;;10.95;;
10154;SDS011;5118;48.570;7.916;2022-10-13T13:12:28;13.88;;;10.98;;
10154;SDS011;5118;48.570;7.916;2022-10-13T13:14:58;14.40;;;11.13;;
10154;SDS011;5118;48.570;7.916;2022-10-13T13:17:45;16.88;;;10.82;;
10154;SDS011;5118;48.570;7.916;2022-10-13T13:20:30;13.25;;;10.85;;
10154;SDS011;5118;48.570;7.916;2022-10-13T13:22:59;15.30;;;10.70;;
10154;SDS011;5118;48.570;7.916;2022-10-13T13:25:28;12.70;;;10.63;;
10154;SDS011;5118;48.570;7.916;2022-10-13T13:27:56;16.42;;;11.02;;
10154;SDS011;5118;48.570;7.916;2022-10-13T13:30:26;15.85;;;11.38;;
10154;SDS011;5118;48.570;7.916;2022-10-13T13:32:55;17.83;;;11.30;;
10154;SDS011;5118;48.570;7.916;2022-10-13T13:35:23;14.80;;;10.27;;
10154;SDS011;5118;48.570;7.916;2022-10-13T13:37:52;20.00;;;11.40;;
10154;SDS011;5118;48.570;7.916;2022-10-13T13:40:21;13.32;;;9.95;;
10154;SDS011;5118;48.570;7.916;2022-10-13T13:42:50;12.25;;;10.55;;
10154;SDS011;5118;48.570;7.916;2022-10-13T13:45:19;13.65;;;10.57;;
10154;SDS011;5118;48.570;7.916;2022-10-13T13:47:51;13.68;;;10.95;;
10154;SDS011;5118;48.570;7.916;2022-10-13T13:50:26;16.15;;;10.77;;
10154;SDS011;5118;48.570;7.916;2022-10-13T13:53:00;14.90;;;10.75;;
10154;SDS011;5118;48.570;7.916;2022-10-13T13:55:28;17.92;;;10.88;;
10154;SDS011;5118;48.570;7.916;2022-10-13T13:57:57;14.60;;;10.88;;
10154;SDS011;5118;48.570;7.916;2022-10-13T14:00:25;13.90;;;10.55;;
10154;SDS011;5118;48.570;7.916;2022-10-13T14:02:55;12.43;;;10.23;;
10154;SDS011;5118;48.570;7.916;2022-10-13T14:05:24;12.98;;;10.48;;
10154;SDS011;5118;48.570;7.916;2022-10-13T14:07:53;16.05;;;10.82;;
10154;SDS011;5118;48.570;7.916;2022-10-13T14:10:23;14.80;;;10.77;;
10154;SDS011;5118;48.570;7.916;2022-10-13T14:12:52;19.40;;;11.02;;
10154;SDS011;5118;48.570;7.916;2022-10-13T14:15:21;13.43;;;11.45;;
10154;SDS011;5118;48.570;7.916;2022-10-13T14:17:56;16.95;;;10.95;;
10154;SDS011;5118;48.570;7.916;2022-10-13T14:20:24;13.27;;;10.75;;
10154;SDS011;5118;48.570;7.916;2022-10-13T14:22:53;13.90;;;11.10;;
10154;SDS011;5118;48.570;7.916;2022-10-13T14:25:21;15.75;;;11.00;;
10154;SDS011;5118;48.570;7.916;2022-10-13T14:27:49;17.92;;;11.45;;
10154;SDS011;5118;48.570;7.916;2022-10-13T14:30:18;17.95;;;10.70;;
10154;SDS011;5118;48.570;7.916;2022-10-13T14:32:46;17.58;;;10.43;;
10154;SDS011;5118;48.570;7.916;2022-10-13T14:35:16;13.43;;;9.60;;
10154;SDS011;5118;48.570;7.916;2022-10-13T14:37:44;14.35;;;9.35;;
10154;SDS011;5118;48.570;7.916;2022-10-13T14:40:13;22.13;;;8.77;;
10154;SDS011;5118;48.570;7.916;2022-10-13T14:42:41;13.85;;;9.77;;
10154;SDS011;5118;48.570;7.916;2022-10-13T14:45:13;14.32;;;8.68;;
10154;SDS011;5118;48.570;7.916;2022-10-13T14:47:42;17.02;;;8.95;;
10154;SDS011;5118;48.570;7.916;2022-10-13T14:50:10;13.45;;;8.55;;
10154;SDS011;5118;48.570;7.916;2022-10-13T14:52:40;13.45;;;8.80;;
10154;SDS011;5118;48.570;7.916;2022-10-13T14:55:09;10.52;;;7.95;;
10154;SDS011;5118;48.570;7.916;2022-10-13T14:57:39;10.60;;;7.82;;
10154;SDS011;5118;48.570;7.916;2022-10-13T15:00:08;10.38;;;7.47;;
10154;SDS011;5118;48.570;7.916;2022-10-13T15:02:37;12.13;;;7.50;;
10154;SDS011;5118;48.570;7.916;2022-10-13T15:05:06;12.63;;;7.57;;
10154;SDS011;5118;48.570;7.916;2022-10-13T15:07:34;10.75;;;8.20;;
10154;SDS011;5118;48.570;7.916;2022-10-13T15:10:08;9.75;;;7.57;;
10154;SDS011;5118;48.570;7.916;2022-10-13T15:12:36;11.32;;;8.25;;
10154;SDS011;5118;48.570;7.916;2022-10-13T15:15:05;11.80;;;7.50;;
10154;SDS011;5118;48.570;7.916;2022-10-13T15:17:34;12.15;;;8.02;;
10154;SDS011;5118;48.570;7.916;2022-10-13T15:20:04;12.90;;;8.30;;
10154;SDS011;5118;48.570;7.916;2022-10-13T15:22:33;9.35;;;7.18;;
10154;SDS011;5118;48.570;7.916;2022-10-13T15:25:01;10.95;;;6.35;;